createdAt,value
2018-12-06T00:01:21.734Z,80.45
2018-12-06T00:03:32.569Z,80.72
2018-12-06T00:05:43.393Z,81.12
2018-12-06T00:08:06.542Z,81.41
2018-12-06T00:10:17.357Z,82.16
2018-12-06T00:12:28.200Z,82.43
2018-12-06T00:14:39.055Z,82.52
2018-12-06T00:16:53.298Z,82.00
2018-12-06T00:19:06.654Z,82.97
2018-12-06T00:21:17.508Z,83.24
2018-12-06T00:23:28.393Z,83.28
2018-12-06T00:25:39.233Z,83.22
2018-12-06T00:27:50.080Z,83.43
2018-12-06T00:30:13.222Z,82.99
2018-12-06T00:32:24.069Z,82.84
2018-12-06T00:34:34.936Z,83.33
2018-12-06T00:36:45.765Z,83.54
2018-12-06T00:38:56.647Z,83.30
2018-12-06T00:41:07.617Z,84.34
2018-12-06T00:43:18.451Z,84.33
2018-12-06T00:45:29.327Z,83.89
2018-12-06T00:47:40.264Z,83.53
2018-12-06T00:49:51.100Z,84.50
2018-12-06T00:52:01.922Z,84.14
2018-12-06T00:54:12.770Z,83.81
2018-12-06T00:56:23.655Z,84.73
2018-12-06T00:58:34.477Z,84.24
2018-12-06T01:00:45.513Z,84.79
2018-12-06T01:02:56.352Z,84.83
2018-12-06T01:05:07.332Z,84.56
2018-12-06T01:07:18.181Z,84.42
2018-12-06T01:09:29.022Z,84.57
2018-12-06T01:11:39.979Z,84.79
2018-12-06T01:13:50.821Z,85.41
2018-12-06T01:16:01.681Z,85.41
2018-12-06T01:18:12.488Z,84.76
2018-12-06T01:20:23.326Z,85.02
2018-12-06T01:22:34.172Z,84.85
2018-12-06T01:24:45.006Z,84.46
2018-12-06T01:26:55.871Z,85.19
2018-12-06T01:29:06.712Z,85.79
2018-12-06T01:31:17.558Z,85.51
2018-12-06T01:33:28.494Z,86.76
2018-12-06T01:35:39.305Z,87.25
2018-12-06T01:37:50.168Z,87.07
2018-12-06T01:40:01.028Z,87.08
2018-12-06T01:42:11.889Z,87.15
2018-12-06T01:44:22.736Z,87.26
2018-12-06T01:46:33.606Z,87.25
2018-12-06T01:48:44.562Z,87.60
2018-12-06T01:50:55.397Z,86.81
2018-12-06T01:53:06.335Z,86.36
2018-12-06T01:55:17.188Z,86.17
2018-12-06T01:57:28.053Z,85.33
2018-12-06T01:59:38.888Z,86.03
2018-12-06T02:01:49.726Z,85.35
2018-12-06T02:04:00.541Z,85.82
2018-12-06T02:06:11.369Z,86.69
2018-12-06T02:08:22.205Z,86.20
2018-12-06T02:10:33.058Z,85.76
2018-12-06T02:12:43.885Z,85.98
2018-12-06T02:14:54.840Z,85.93
2018-12-06T02:17:05.672Z,85.80
2018-12-06T02:19:16.527Z,86.17
2018-12-06T02:21:27.345Z,85.56
2018-12-06T02:23:38.194Z,86.08
2018-12-06T02:25:49.033Z,86.36
2018-12-06T02:27:59.876Z,86.61
2018-12-06T02:30:10.904Z,86.83
2018-12-06T02:32:21.773Z,86.42
2018-12-06T02:36:49.944Z,87.17
2018-12-06T02:39:00.876Z,86.59
2018-12-06T02:41:11.701Z,87.44
2018-12-06T02:43:22.626Z,87.12
2018-12-06T02:45:33.485Z,87.42
2018-12-06T02:47:44.305Z,87.21
2018-12-06T02:49:55.153Z,87.33
2018-12-06T02:52:06.093Z,86.73
2018-12-06T02:54:16.925Z,87.30
2018-12-06T02:56:27.794Z,86.87
2018-12-06T02:58:38.654Z,87.28
2018-12-06T03:00:49.487Z,86.51
2018-12-06T03:03:00.330Z,86.13
2018-12-06T03:05:11.182Z,86.26
2018-12-06T03:07:22.030Z,85.45
2018-12-06T03:09:32.848Z,85.91
2018-12-06T03:11:43.702Z,85.74
2018-12-06T03:13:54.540Z,85.83
2018-12-06T03:16:05.361Z,86.31
2018-12-06T03:18:16.194Z,87.54
2018-12-06T03:20:27.050Z,87.30
2018-12-06T03:22:37.872Z,87.95
2018-12-06T03:24:48.699Z,87.32
2018-12-06T03:26:59.567Z,87.83
2018-12-06T03:29:10.397Z,87.59
2018-12-06T03:31:21.246Z,87.76
2018-12-06T03:33:32.166Z,88.13
2018-12-06T03:35:43.008Z,88.14
2018-12-06T03:37:53.845Z,88.09
2018-12-06T03:40:05.412Z,88.19
2018-12-06T03:42:16.251Z,88.20
2018-12-06T03:44:27.189Z,88.19
2018-12-06T03:46:38.176Z,87.82
2018-12-06T03:48:49.004Z,88.19
2018-12-06T03:50:59.826Z,87.84
2018-12-06T03:53:10.670Z,87.55
2018-12-06T03:55:21.481Z,87.94
2018-12-06T03:57:32.321Z,87.57
2018-12-06T03:59:43.137Z,88.06
2018-12-06T04:01:54.125Z,87.51
2018-12-06T04:04:05.009Z,88.02
2018-12-06T04:06:15.869Z,88.49
2018-12-06T04:08:26.724Z,88.36
2018-12-06T04:10:37.556Z,88.50
2018-12-06T04:12:48.581Z,88.91
2018-12-06T04:14:59.414Z,88.35
2018-12-06T04:17:10.373Z,88.81
2018-12-06T04:19:21.312Z,88.73
2018-12-06T04:21:32.256Z,89.51
2018-12-06T04:23:43.080Z,88.99
2018-12-06T04:25:53.921Z,89.43
2018-12-06T04:28:04.896Z,89.42
2018-12-06T04:30:15.721Z,88.73
2018-12-06T04:32:26.553Z,89.27
2018-12-06T04:34:37.514Z,89.06
2018-12-06T04:36:48.539Z,89.33
2018-12-06T04:38:59.518Z,89.25
2018-12-06T04:41:10.333Z,88.65
2018-12-06T04:43:21.229Z,89.16
2018-12-06T04:45:32.095Z,88.89
2018-12-06T04:47:42.917Z,88.19
2018-12-06T04:49:53.769Z,88.30
2018-12-06T04:52:04.711Z,88.08
2018-12-06T04:54:15.528Z,88.76
2018-12-06T04:56:26.385Z,88.83
2018-12-06T04:58:37.206Z,88.51
2018-12-06T05:00:48.061Z,88.67
2018-12-06T05:02:58.884Z,87.83
2018-12-06T05:05:09.853Z,88.62
2018-12-06T05:07:20.789Z,88.27
2018-12-06T05:09:31.610Z,88.35
2018-12-06T05:11:42.471Z,88.89
2018-12-06T05:13:53.300Z,88.26
2018-12-06T05:16:04.165Z,88.39
2018-12-06T05:18:14.979Z,88.20
2018-12-06T05:20:25.887Z,88.97
2018-12-06T05:22:36.744Z,88.44
2018-12-06T05:24:47.573Z,88.66
2018-12-06T05:26:58.417Z,88.44
2018-12-06T05:29:09.234Z,88.44
2018-12-06T05:31:20.084Z,88.46
2018-12-06T05:33:30.930Z,87.65
2018-12-06T05:35:41.765Z,88.46
2018-12-06T05:37:52.751Z,87.63
2018-12-06T05:40:03.818Z,87.89
2018-12-06T05:42:14.752Z,87.09
2018-12-06T05:44:25.605Z,87.53
2018-12-06T05:46:36.417Z,87.51
2018-12-06T05:48:47.254Z,87.01
2018-12-06T05:50:58.100Z,87.84
2018-12-06T05:53:08.961Z,88.06
2018-12-06T05:55:19.789Z,88.46
2018-12-06T05:57:30.629Z,88.15
2018-12-06T05:59:41.475Z,88.59
2018-12-06T06:01:52.409Z,88.46
2018-12-06T06:04:03.389Z,88.28
2018-12-06T06:06:14.248Z,87.81
2018-12-06T06:08:25.190Z,88.35
2018-12-06T06:10:36.013Z,87.93
2018-12-06T06:12:46.910Z,88.62
2018-12-06T06:14:57.749Z,88.44
2018-12-06T06:17:08.558Z,87.65
2018-12-06T06:19:19.397Z,88.31
2018-12-06T06:21:30.230Z,88.21
2018-12-06T06:23:41.069Z,87.71
2018-12-06T06:25:51.980Z,88.13
2018-12-06T06:28:02.844Z,87.36
2018-12-06T06:30:13.691Z,87.35
2018-12-06T06:32:24.529Z,88.09
2018-12-06T06:34:35.368Z,87.06
2018-12-06T06:36:46.205Z,88.07
2018-12-06T06:38:57.073Z,87.72
2018-12-06T06:41:07.940Z,88.10
2018-12-06T06:43:18.778Z,88.05
2018-12-06T06:45:29.674Z,87.09
2018-12-06T06:47:40.548Z,87.84
2018-12-06T06:49:51.453Z,87.86
2018-12-06T06:52:02.337Z,87.30
2018-12-06T06:54:13.177Z,87.32
2018-12-06T06:56:24.056Z,87.70
2018-12-06T06:58:34.986Z,87.66
2018-12-06T07:00:45.868Z,87.78
2018-12-06T07:02:56.721Z,87.58
2018-12-06T07:05:07.774Z,87.95
2018-12-06T07:07:18.631Z,87.99
2018-12-06T07:09:29.493Z,88.16
2018-12-06T07:11:40.483Z,88.24
2018-12-06T07:13:51.344Z,87.31
2018-12-06T07:16:02.250Z,88.09
2018-12-06T07:18:13.077Z,86.99
2018-12-06T07:20:23.954Z,86.91
2018-12-06T07:22:34.825Z,87.71
2018-12-06T07:24:45.651Z,88.23
2018-12-06T07:26:56.504Z,87.92
2018-12-06T07:29:07.348Z,88.23
2018-12-06T07:31:18.298Z,88.45
2018-12-06T07:33:29.133Z,88.28
2018-12-06T07:35:39.989Z,88.39
2018-12-06T07:37:50.874Z,89.00
2018-12-06T07:40:02.087Z,89.07
2018-12-06T07:42:13.065Z,88.69
2018-12-06T07:44:24.014Z,89.55
2018-12-06T07:46:34.978Z,89.77
2018-12-06T07:48:45.861Z,90.01
2018-12-06T07:50:56.914Z,89.75
2018-12-06T07:53:07.777Z,89.15
2018-12-06T07:55:18.652Z,89.30
2018-12-06T07:57:29.488Z,89.97
2018-12-06T07:59:40.318Z,89.60
2018-12-06T08:01:51.216Z,89.44
2018-12-06T08:04:02.218Z,90.08
2018-12-06T08:06:13.045Z,90.17
2018-12-06T08:08:24.031Z,89.76
2018-12-06T08:10:34.879Z,89.72
2018-12-06T08:12:45.732Z,89.54
2018-12-06T08:14:56.588Z,90.06
2018-12-06T08:17:07.453Z,90.46
2018-12-06T08:19:18.312Z,90.32
2018-12-06T08:21:29.142Z,89.89
2018-12-06T08:23:39.995Z,90.11
2018-12-06T08:25:50.821Z,90.47
2018-12-06T08:28:01.689Z,90.61
2018-12-06T08:30:12.552Z,90.02
2018-12-06T08:32:23.435Z,90.80
2018-12-06T08:34:34.344Z,90.41
2018-12-06T08:36:45.173Z,90.80
2018-12-06T08:38:56.014Z,90.13
2018-12-06T08:41:06.889Z,90.79
2018-12-06T08:43:17.843Z,90.84
2018-12-06T08:45:28.737Z,90.67
2018-12-06T08:47:39.597Z,90.86
2018-12-06T08:49:50.477Z,89.91
2018-12-06T08:52:01.365Z,90.87
2018-12-06T08:54:12.234Z,90.27
2018-12-06T08:56:23.102Z,90.27
2018-12-06T08:58:33.939Z,89.98
2018-12-06T09:00:44.782Z,90.24
2018-12-06T09:02:55.632Z,90.92
2018-12-06T09:05:06.636Z,90.45
2018-12-06T09:07:17.561Z,90.44
2018-12-06T09:09:28.457Z,90.81
2018-12-06T09:11:39.311Z,91.17
2018-12-06T09:13:50.193Z,90.23
2018-12-06T09:16:01.054Z,90.10
2018-12-06T09:18:11.901Z,90.14
2018-12-06T09:20:22.749Z,90.65
2018-12-06T09:22:33.632Z,90.57
2018-12-06T09:24:44.497Z,89.93
2018-12-06T09:26:58.777Z,90.21
2018-12-06T09:29:09.181Z,90.22
2018-12-06T09:31:20.034Z,90.13
2018-12-06T09:33:30.892Z,89.18
2018-12-06T09:35:41.728Z,89.66
2018-12-06T09:37:52.667Z,89.16
2018-12-06T09:40:04.079Z,89.62
2018-12-06T09:42:14.953Z,88.71
2018-12-06T09:44:25.839Z,88.44
2018-12-06T09:46:36.846Z,89.09
2018-12-06T09:48:47.708Z,88.26
2018-12-06T09:50:58.686Z,88.69
2018-12-06T09:53:09.638Z,88.53
2018-12-06T09:55:20.495Z,87.79
2018-12-06T09:57:31.395Z,88.41
2018-12-06T09:59:42.261Z,87.39
2018-12-06T10:01:53.097Z,87.30
2018-12-06T10:04:03.962Z,87.76
2018-12-06T10:06:14.801Z,88.09
2018-12-06T10:08:25.717Z,87.43
2018-12-06T10:10:36.537Z,88.26
2018-12-06T10:12:47.473Z,87.72
2018-12-06T10:14:58.327Z,87.77
2018-12-06T10:17:09.264Z,87.52
2018-12-06T10:19:20.137Z,87.47
2018-12-06T10:21:30.972Z,86.83
2018-12-06T10:23:41.838Z,86.77
2018-12-06T10:25:52.677Z,86.61
2018-12-06T10:28:03.562Z,86.19
2018-12-06T10:30:14.411Z,85.69
2018-12-06T10:32:25.277Z,85.87
2018-12-06T10:34:36.196Z,86.34
2018-12-06T10:36:47.053Z,85.81
2018-12-06T10:38:57.902Z,86.09
2018-12-06T10:41:08.758Z,85.73
2018-12-06T10:43:19.611Z,85.72
2018-12-06T10:45:30.502Z,85.17
2018-12-06T10:47:41.401Z,84.87
2018-12-06T10:49:52.293Z,85.46
2018-12-06T10:52:03.131Z,85.15
2018-12-06T10:54:13.999Z,84.88
2018-12-06T10:56:24.829Z,85.42
2018-12-06T10:58:35.707Z,84.73
2018-12-06T11:00:57.251Z,85.02
2018-12-06T11:03:10.813Z,85.27
2018-12-06T11:05:21.665Z,85.78
2018-12-06T11:07:32.516Z,86.61
2018-12-06T11:09:43.368Z,85.94
2018-12-06T11:11:54.355Z,87.05
2018-12-06T11:14:05.209Z,86.86
2018-12-06T11:16:16.097Z,87.06
2018-12-06T11:18:26.947Z,87.04
2018-12-06T11:20:37.807Z,86.46
2018-12-06T11:22:48.644Z,86.36
2018-12-06T11:24:59.522Z,86.90
2018-12-06T11:27:44.491Z,87.64
2018-12-06T11:29:55.362Z,87.50
2018-12-06T11:32:06.240Z,87.05
2018-12-06T11:34:17.125Z,87.23
2018-12-06T11:36:28.029Z,87.56
2018-12-06T11:38:38.925Z,87.57
2018-12-06T11:40:49.795Z,87.78
2018-12-06T11:43:00.695Z,87.97
2018-12-06T11:45:11.552Z,88.71
2018-12-06T11:47:22.398Z,88.64
2018-12-06T11:49:33.235Z,87.73
2018-12-06T11:51:44.277Z,87.91
2018-12-06T11:53:55.132Z,87.88
2018-12-06T11:56:05.981Z,87.58
2018-12-06T11:58:16.869Z,87.72
2018-12-06T12:00:27.746Z,88.25
2018-12-06T12:02:38.638Z,88.85
2018-12-06T12:04:49.474Z,87.91
2018-12-06T12:07:00.355Z,88.90
2018-12-06T12:09:11.241Z,89.38
2018-12-06T12:11:22.085Z,89.11
2018-12-06T12:13:32.945Z,88.65
2018-12-06T12:15:43.803Z,88.64
2018-12-06T12:17:54.665Z,89.55
2018-12-06T12:20:06.367Z,89.67
2018-12-06T12:22:17.328Z,89.14
2018-12-06T12:24:28.201Z,89.10
2018-12-06T12:26:39.036Z,89.07
2018-12-06T12:28:49.897Z,89.50
2018-12-06T12:31:01.175Z,89.43
2018-12-06T12:33:12.054Z,89.39
2018-12-06T12:35:22.938Z,90.00
2018-12-06T12:37:33.925Z,90.24
2018-12-06T12:39:44.768Z,90.18
2018-12-06T12:41:55.640Z,89.75
2018-12-06T12:44:06.682Z,89.42
2018-12-06T12:46:17.648Z,89.39
2018-12-06T12:48:28.548Z,90.11
2018-12-06T12:50:39.410Z,90.31
2018-12-06T12:52:50.271Z,90.38
2018-12-06T12:55:01.146Z,90.41
2018-12-06T12:57:12.042Z,89.75
2018-12-06T12:59:22.910Z,89.54
2018-12-06T13:01:33.771Z,90.33
2018-12-06T13:03:44.625Z,90.35
2018-12-06T13:05:55.522Z,90.33
2018-12-06T13:08:06.369Z,90.33
2018-12-06T13:10:17.253Z,90.04
2018-12-06T13:12:28.253Z,90.05
2018-12-06T13:14:39.094Z,89.59
2018-12-06T13:16:49.965Z,89.80
2018-12-06T13:19:00.840Z,89.41
2018-12-06T13:21:11.671Z,90.10
2018-12-06T13:23:22.507Z,89.92
2018-12-06T13:25:33.385Z,89.41
2018-12-06T13:27:44.391Z,89.38
2018-12-06T13:29:55.268Z,89.11
2018-12-06T13:32:06.135Z,88.67
2018-12-06T13:34:17.053Z,89.37
2018-12-06T13:36:27.961Z,88.58
2018-12-06T13:38:38.853Z,89.14
2018-12-06T13:40:49.718Z,88.60
2018-12-06T13:43:00.765Z,88.96
2018-12-06T13:45:11.670Z,88.38
2018-12-06T13:47:22.537Z,88.69
2018-12-06T13:49:33.424Z,88.73
2018-12-06T13:51:44.313Z,87.93
2018-12-06T13:53:55.273Z,88.42
2018-12-06T13:56:06.142Z,88.41
2018-12-06T13:58:17.014Z,88.70
2018-12-06T14:00:27.965Z,88.52
2018-12-06T14:02:38.966Z,87.45
2018-12-06T14:04:49.849Z,87.43
2018-12-06T14:07:00.729Z,87.68
2018-12-06T14:09:11.739Z,87.17
2018-12-06T14:11:22.573Z,87.50
2018-12-06T14:13:33.450Z,87.39
2018-12-06T14:15:44.324Z,87.33
2018-12-06T14:17:55.203Z,87.20
2018-12-06T14:20:06.914Z,87.40
2018-12-06T14:22:17.780Z,86.61
2018-12-06T14:24:28.792Z,86.63
2018-12-06T14:26:39.774Z,86.76
2018-12-06T14:28:50.646Z,87.30
2018-12-06T14:31:01.491Z,87.28
2018-12-06T14:33:12.342Z,87.12
2018-12-06T14:35:23.206Z,87.24
2018-12-06T14:37:34.084Z,86.83
2018-12-06T14:39:45.072Z,87.58
2018-12-06T14:41:55.908Z,87.17
2018-12-06T14:44:06.846Z,86.74
2018-12-06T14:46:17.753Z,86.18
2018-12-06T14:48:28.649Z,86.98
2018-12-06T14:50:39.523Z,86.44
2018-12-06T14:52:50.432Z,86.22
2018-12-06T14:55:01.300Z,85.87
2018-12-06T14:57:12.506Z,86.05
2018-12-06T14:59:23.617Z,85.49
2018-12-06T15:01:34.494Z,85.55
2018-12-06T15:03:45.390Z,85.81
2018-12-06T15:05:56.263Z,86.12
2018-12-06T15:08:07.170Z,86.19
2018-12-06T15:10:18.004Z,86.25
2018-12-06T15:12:29.018Z,86.84
2018-12-06T15:14:39.877Z,87.25
2018-12-06T15:16:50.894Z,87.08
2018-12-06T15:19:01.798Z,86.65
2018-12-06T15:21:12.669Z,87.44
2018-12-06T15:23:23.505Z,86.72
2018-12-06T15:25:41.647Z,87.16
2018-12-06T15:27:47.501Z,87.23
2018-12-06T15:29:58.477Z,86.84
2018-12-06T15:32:09.394Z,87.49
2018-12-06T15:34:20.274Z,86.88
2018-12-06T15:36:31.133Z,87.23
2018-12-06T15:38:41.980Z,86.94
2018-12-06T15:40:52.877Z,87.35
2018-12-06T15:43:03.761Z,87.06
2018-12-06T15:45:14.660Z,87.59
2018-12-06T15:47:25.577Z,87.31
2018-12-06T15:49:36.441Z,87.99
2018-12-06T15:51:47.282Z,87.33
2018-12-06T15:53:58.165Z,87.77
2018-12-06T15:56:09.010Z,87.98
2018-12-06T15:58:19.920Z,87.67
2018-12-06T16:00:30.786Z,87.19
2018-12-06T16:02:41.681Z,87.43
2018-12-06T16:04:52.550Z,88.27
2018-12-06T16:07:03.470Z,88.43
2018-12-06T16:09:14.496Z,88.44
2018-12-06T16:11:25.392Z,88.25
2018-12-06T16:13:36.241Z,88.63
2018-12-06T16:15:47.145Z,88.50
2018-12-06T16:17:58.102Z,88.36
2018-12-06T16:20:09.087Z,87.65
2018-12-06T16:22:19.958Z,88.10
2018-12-06T16:24:30.808Z,87.77
2018-12-06T16:26:41.661Z,87.87
2018-12-06T16:28:52.618Z,87.28
2018-12-06T16:31:03.498Z,87.33
2018-12-06T16:33:14.349Z,87.91
2018-12-06T16:35:25.240Z,87.44
2018-12-06T16:37:36.124Z,86.96
2018-12-06T16:39:47.020Z,87.28
2018-12-06T16:41:57.924Z,87.28
2018-12-06T16:44:08.769Z,86.81
2018-12-06T16:46:19.648Z,87.19
2018-12-06T16:48:30.639Z,86.50
2018-12-06T16:50:41.542Z,87.15
2018-12-06T16:52:52.400Z,86.46
2018-12-06T16:55:03.672Z,87.03
2018-12-06T16:57:14.822Z,86.57
2018-12-06T16:59:25.964Z,86.58
2018-12-06T17:01:36.846Z,86.21
2018-12-06T17:03:47.998Z,86.60
2018-12-06T17:05:59.196Z,86.02
2018-12-06T17:08:10.385Z,85.93
2018-12-06T17:10:21.594Z,85.77
2018-12-06T17:12:32.764Z,86.41
2018-12-06T17:14:43.676Z,86.33
2018-12-06T17:16:54.566Z,86.19
2018-12-06T17:19:05.471Z,86.12
2018-12-06T17:21:16.393Z,86.14
2018-12-06T17:23:27.339Z,86.11
2018-12-06T17:25:38.220Z,86.14
2018-12-06T17:27:49.106Z,86.02
2018-12-06T17:30:00.199Z,86.02
2018-12-06T17:32:11.064Z,86.45
2018-12-06T17:34:21.975Z,85.92
2018-12-06T17:36:32.839Z,84.12
2018-12-06T17:38:44.037Z,83.25
2018-12-06T17:40:55.236Z,83.93
2018-12-06T17:43:06.543Z,83.85
2018-12-06T17:45:17.499Z,83.73
2018-12-06T17:47:28.365Z,84.29
2018-12-06T17:49:39.465Z,84.48
2018-12-06T17:51:50.640Z,83.62
2018-12-06T17:54:01.833Z,84.25
2018-12-06T17:56:12.799Z,83.43
2018-12-06T17:58:23.651Z,84.27
2018-12-06T18:00:34.661Z,84.13
2018-12-06T18:02:45.569Z,83.23
2018-12-06T18:04:56.430Z,83.27
2018-12-06T18:07:07.293Z,83.83
2018-12-06T18:09:18.132Z,83.83
2018-12-06T18:11:29.037Z,83.51
2018-12-06T18:13:40.353Z,83.86
2018-12-06T18:15:51.363Z,83.99
2018-12-06T18:18:02.244Z,83.82
2018-12-06T18:20:13.133Z,83.46
2018-12-06T18:22:24.147Z,83.14
2018-12-06T18:24:35.000Z,83.37
2018-12-06T18:26:45.889Z,83.79
2018-12-06T18:28:56.717Z,84.03
2018-12-06T18:31:08.007Z,83.65
2018-12-06T18:33:18.939Z,83.31
2018-12-06T18:35:29.790Z,83.46
2018-12-06T18:37:40.647Z,83.47
2018-12-06T18:39:51.546Z,83.77
2018-12-06T18:42:02.544Z,83.88
2018-12-06T18:44:13.446Z,83.83
2018-12-06T18:46:24.380Z,83.59
2018-12-06T18:48:35.257Z,83.24
2018-12-06T18:50:46.085Z,82.77
2018-12-06T18:52:56.991Z,82.75
2018-12-06T18:55:07.828Z,83.24
2018-12-06T18:57:18.990Z,83.39
2018-12-06T18:59:30.229Z,82.90
2018-12-06T19:01:41.385Z,82.60
2018-12-06T19:03:52.780Z,83.24
2018-12-06T19:06:03.782Z,82.52
2018-12-06T19:08:14.633Z,83.33
2018-12-06T19:10:25.762Z,83.17
2018-12-06T19:12:36.767Z,83.26
2018-12-06T19:14:47.649Z,82.81
2018-12-06T19:16:58.488Z,82.73
2018-12-06T19:19:09.745Z,82.78
2018-12-06T19:21:20.683Z,83.59
2018-12-06T19:23:31.852Z,83.39
2018-12-06T19:25:42.946Z,83.03
2018-12-06T19:27:54.063Z,83.36
2018-12-06T19:30:07.765Z,82.37
2018-12-06T19:32:18.641Z,83.09
2018-12-06T19:34:29.693Z,82.95
2018-12-06T19:36:40.848Z,82.98
2018-12-06T19:38:51.726Z,82.38
2018-12-06T19:41:02.859Z,82.16
2018-12-06T19:43:13.757Z,82.15
2018-12-06T19:45:24.703Z,82.24
2018-12-06T19:47:35.898Z,82.53
2018-12-06T19:49:46.840Z,83.05
2018-12-06T19:51:58.041Z,81.94
2018-12-06T19:54:09.241Z,81.98
2018-12-06T19:56:20.189Z,81.93
2018-12-06T19:58:31.334Z,82.42
2018-12-06T20:00:42.534Z,82.59
2018-12-06T20:02:53.734Z,82.45
2018-12-06T20:05:05.469Z,82.05
2018-12-06T20:07:16.380Z,81.88
2018-12-06T20:09:27.532Z,81.87
2018-12-06T20:11:38.727Z,81.71
2018-12-06T20:13:49.910Z,81.70
2018-12-06T20:16:01.054Z,82.64
2018-12-06T20:18:12.230Z,81.37
2018-12-06T20:20:24.045Z,81.59
2018-12-06T20:22:35.447Z,81.49
2018-12-06T20:24:46.353Z,82.11
2018-12-06T20:26:57.243Z,81.12
2018-12-06T20:29:08.110Z,81.54
2018-12-06T20:31:19.229Z,81.95
2018-12-06T20:33:30.190Z,81.80
2018-12-06T20:35:41.097Z,81.62
2018-12-06T20:37:51.993Z,81.83
2018-12-06T20:40:03.321Z,81.14
2018-12-06T20:42:14.297Z,81.70
2018-12-06T20:44:25.185Z,81.14
2018-12-06T20:46:36.043Z,81.77
2018-12-06T20:48:46.917Z,81.16
2018-12-06T20:50:57.765Z,81.81
2018-12-06T20:53:08.698Z,80.56
2018-12-06T20:55:19.571Z,80.94
2018-12-06T20:57:36.965Z,81.75
2018-12-06T20:59:43.329Z,81.02
2018-12-06T21:01:54.961Z,81.37
2018-12-06T21:04:06.024Z,80.82
2018-12-06T21:06:16.925Z,81.59
2018-12-06T21:08:27.810Z,80.82
2018-12-06T21:10:38.715Z,81.32
2018-12-06T21:12:49.588Z,81.03
2018-12-06T21:15:00.466Z,80.51
2018-12-06T21:17:11.300Z,80.55
2018-12-06T21:19:22.304Z,81.19
2018-12-06T21:21:33.286Z,81.21
2018-12-06T21:23:44.126Z,80.34
2018-12-06T21:25:55.037Z,80.92
2018-12-06T21:28:05.897Z,80.51
2018-12-06T21:30:16.812Z,81.09
2018-12-06T21:32:27.649Z,81.00
2018-12-06T21:34:38.497Z,80.54
2018-12-06T21:36:49.389Z,80.72
2018-12-06T21:39:00.249Z,80.30
2018-12-06T21:41:11.121Z,80.87
2018-12-06T21:43:22.205Z,79.86
2018-12-06T21:45:33.638Z,80.04
2018-12-06T21:47:44.696Z,80.10
2018-12-06T21:49:55.767Z,80.52
2018-12-06T21:52:06.622Z,80.98
2018-12-06T21:54:17.481Z,81.02
2018-12-06T21:56:28.348Z,80.36
2018-12-06T21:58:39.185Z,80.51
2018-12-06T22:00:50.095Z,80.56
2018-12-06T22:03:00.976Z,80.36
2018-12-06T22:05:11.838Z,80.52
2018-12-06T22:07:22.831Z,81.02
2018-12-06T22:09:33.818Z,81.09
2018-12-06T22:11:44.677Z,80.24
2018-12-06T22:13:55.544Z,81.03
2018-12-06T22:16:06.394Z,80.30
2018-12-06T22:18:17.361Z,80.59
2018-12-06T22:20:28.217Z,80.66
2018-12-06T22:22:39.084Z,81.55
2018-12-06T22:24:49.968Z,80.79
2018-12-06T22:27:00.786Z,81.40
2018-12-06T22:29:11.788Z,81.44
2018-12-06T22:31:22.630Z,81.28
2018-12-06T22:33:33.533Z,80.35
2018-12-06T22:35:44.368Z,80.96
2018-12-06T22:37:55.225Z,81.24
2018-12-06T22:40:06.066Z,81.26
2018-12-06T22:42:16.926Z,81.00
2018-12-06T22:44:27.802Z,81.10
2018-12-06T22:46:38.653Z,80.80
2018-12-06T22:48:49.631Z,80.65
2018-12-06T22:51:00.595Z,81.47
2018-12-06T22:53:11.440Z,81.48
2018-12-06T22:55:22.329Z,81.29
2018-12-06T22:57:33.165Z,81.07
2018-12-06T22:59:44.037Z,80.67
2018-12-06T23:01:54.909Z,80.55
2018-12-06T23:04:06.291Z,80.73
2018-12-06T23:06:17.148Z,80.35
2018-12-06T23:08:28.014Z,80.48
2018-12-06T23:10:38.879Z,81.08
2018-12-06T23:12:49.705Z,81.08
2018-12-06T23:15:00.549Z,80.53
2018-12-06T23:17:11.390Z,80.82
2018-12-06T23:19:22.252Z,80.26
2018-12-06T23:21:33.117Z,80.32
2018-12-06T23:23:43.949Z,80.76
2018-12-06T23:25:54.811Z,80.88
2018-12-06T23:28:05.653Z,80.87
2018-12-06T23:30:16.548Z,80.52
2018-12-06T23:32:27.393Z,80.05
2018-12-06T23:34:38.278Z,80.50
2018-12-06T23:36:49.142Z,80.07
2018-12-06T23:39:00.313Z,80.67
2018-12-06T23:41:12.099Z,80.84
2018-12-06T23:43:22.953Z,81.00
2018-12-06T23:45:33.824Z,80.56
2018-12-06T23:47:44.667Z,81.11
2018-12-06T23:49:55.512Z,80.59
2018-12-06T23:52:06.363Z,80.64
2018-12-06T23:54:17.218Z,80.84
2018-12-06T23:56:28.067Z,81.22
2018-12-06T23:58:38.878Z,80.53
